sensor_id;sensor_type;location;lat;lon;timestamp;P1;durP1;ratioP1;P2;durP2;ratioP2
23624;SDS011;11989;47.872;12.014;2022-12-20T07:22:10;43.88;;;27.52;;
23624;SDS011;11989;47.872;12.014;2022-12-20T07:24:36;36.35;;;23.30;;
23624;SDS011;11989;47.872;12.014;2022-12-20T07:27:03;39.55;;;22.75;;
23624;SDS011;11989;47.872;12.014;2022-12-20T07:29:29;34.85;;;20.80;;
23624;SDS011;11989;47.872;12.014;2022-12-20T07:31:55;38.28;;;21.55;;
23624;SDS011;11989;47.872;12.014;2022-12-20T07:34:21;33.65;;;20.48;;
23624;SDS011;11989;47.872;12.014;2022-12-20T07:36:47;33.80;;;20.80;;
23624;SDS011;11989;47.872;12.014;2022-12-20T07:39:13;32.25;;;18.40;;
23624;SDS011;11989;47.872;12.014;2022-12-20T07:41:39;38.17;;;23.17;;
23624;SDS011;11989;47.872;12.014;2022-12-20T07:44:05;34.80;;;21.52;;
23624;SDS011;11989;47.872;12.014;2022-12-20T07:46:32;34.25;;;22.73;;
23624;SDS011;11989;47.872;12.014;2022-12-20T07:48:58;35.33;;;21.15;;
23624;SDS011;11989;47.872;12.014;2022-12-20T07:53:52;37.45;;;23.67;;
23624;SDS011;11989;47.872;12.014;2022-12-20T07:56:19;35.40;;;21.65;;
23624;SDS011;11989;47.872;12.014;2022-12-20T07:58:45;29.77;;;20.00;;
23624;SDS011;11989;47.872;12.014;2022-12-20T08:01:11;27.70;;;20.42;;
23624;SDS011;11989;47.872;12.014;2022-12-20T08:03:43;28.70;;;18.13;;
23624;SDS011;11989;47.872;12.014;2022-12-20T08:06:09;28.95;;;18.67;;
23624;SDS011;11989;47.872;12.014;2022-12-20T08:08:36;27.40;;;17.65;;
23624;SDS011;11989;47.872;12.014;2022-12-20T08:11:03;28.75;;;18.60;;
23624;SDS011;11989;47.872;12.014;2022-12-20T08:13:30;27.88;;;17.15;;
23624;SDS011;11989;47.872;12.014;2022-12-20T08:15:58;30.67;;;19.42;;
23624;SDS011;11989;47.872;12.014;2022-12-20T08:18:24;35.78;;;21.65;;
23624;SDS011;11989;47.872;12.014;2022-12-20T08:20:50;40.05;;;22.60;;
23624;SDS011;11989;47.872;12.014;2022-12-20T08:23:16;34.95;;;21.67;;
23624;SDS011;11989;47.872;12.014;2022-12-20T08:25:43;39.83;;;26.00;;
23624;SDS011;11989;47.872;12.014;2022-12-20T08:28:18;31.73;;;21.42;;
23624;SDS011;11989;47.872;12.014;2022-12-20T08:31:03;31.25;;;19.92;;
23624;SDS011;11989;47.872;12.014;2022-12-20T08:33:31;29.10;;;18.48;;
23624;SDS011;11989;47.872;12.014;2022-12-20T08:36:00;27.85;;;17.85;;
23624;SDS011;11989;47.872;12.014;2022-12-20T08:38:30;29.75;;;17.40;;
23624;SDS011;11989;47.872;12.014;2022-12-20T08:43:35;24.98;;;16.30;;
23624;SDS011;11989;47.872;12.014;2022-12-20T08:46:01;22.65;;;16.35;;
23624;SDS011;11989;47.872;12.014;2022-12-20T08:48:27;30.85;;;18.17;;
23624;SDS011;11989;47.872;12.014;2022-12-20T08:50:57;39.42;;;21.30;;
23624;SDS011;11989;47.872;12.014;2022-12-20T08:53:25;32.17;;;19.98;;
23624;SDS011;11989;47.872;12.014;2022-12-20T08:55:51;30.58;;;19.58;;
23624;SDS011;11989;47.872;12.014;2022-12-20T08:58:17;34.10;;;19.50;;
23624;SDS011;11989;47.872;12.014;2022-12-20T09:00:43;37.13;;;21.85;;
23624;SDS011;11989;47.872;12.014;2022-12-20T09:03:10;35.22;;;22.58;;
23624;SDS011;11989;47.872;12.014;2022-12-20T09:05:47;33.70;;;21.58;;
23624;SDS011;11989;47.872;12.014;2022-12-20T09:08:13;46.90;;;27.23;;
23624;SDS011;11989;47.872;12.014;2022-12-20T09:10:41;148.30;;;66.93;;
23624;SDS011;11989;47.872;12.014;2022-12-20T09:13:07;133.82;;;62.13;;
23624;SDS011;11989;47.872;12.014;2022-12-20T09:15:33;48.63;;;27.40;;
23624;SDS011;11989;47.872;12.014;2022-12-20T09:18:00;26.30;;;17.52;;
23624;SDS011;11989;47.872;12.014;2022-12-20T09:20:26;21.15;;;14.98;;
23624;SDS011;11989;47.872;12.014;2022-12-20T09:22:52;25.73;;;16.60;;
23624;SDS011;11989;47.872;12.014;2022-12-20T09:25:19;25.85;;;16.40;;
23624;SDS011;11989;47.872;12.014;2022-12-20T09:27:45;23.83;;;16.17;;
23624;SDS011;11989;47.872;12.014;2022-12-20T09:30:11;23.42;;;15.88;;
23624;SDS011;11989;47.872;12.014;2022-12-20T09:32:37;27.48;;;17.45;;
23624;SDS011;11989;47.872;12.014;2022-12-20T09:35:03;30.15;;;19.02;;
23624;SDS011;11989;47.872;12.014;2022-12-20T09:37:30;41.58;;;23.10;;
23624;SDS011;11989;47.872;12.014;2022-12-20T09:39:56;36.55;;;23.85;;
23624;SDS011;11989;47.872;12.014;2022-12-20T09:42:23;73.00;;;34.85;;
23624;SDS011;11989;47.872;12.014;2022-12-20T09:44:50;34.88;;;23.17;;
23624;SDS011;11989;47.872;12.014;2022-12-20T09:47:17;30.65;;;22.33;;
23624;SDS011;11989;47.872;12.014;2022-12-20T09:49:45;32.20;;;23.35;;
23624;SDS011;11989;47.872;12.014;2022-12-20T09:59:34;25.83;;;17.95;;
23624;SDS011;11989;47.872;12.014;2022-12-20T10:02:06;30.50;;;19.80;;
23624;SDS011;11989;47.872;12.014;2022-12-20T10:07:13;28.25;;;19.08;;
23624;SDS011;11989;47.872;12.014;2022-12-20T10:12:20;24.30;;;17.65;;
23624;SDS011;11989;47.872;12.014;2022-12-20T10:22:52;36.30;;;20.75;;
23624;SDS011;11989;47.872;12.014;2022-12-20T10:25:20;36.33;;;22.65;;
23624;SDS011;11989;47.872;12.014;2022-12-20T10:27:50;37.08;;;22.60;;
23624;SDS011;11989;47.872;12.014;2022-12-20T10:30:19;25.80;;;18.63;;
23624;SDS011;11989;47.872;12.014;2022-12-20T10:32:46;21.27;;;16.85;;
23624;SDS011;11989;47.872;12.014;2022-12-20T10:35:19;25.17;;;19.20;;
23624;SDS011;11989;47.872;12.014;2022-12-20T10:40:29;23.85;;;17.40;;
23624;SDS011;11989;47.872;12.014;2022-12-20T10:42:55;27.52;;;18.20;;
23624;SDS011;11989;47.872;12.014;2022-12-20T10:47:47;23.42;;;17.35;;
23624;SDS011;11989;47.872;12.014;2022-12-20T10:50:20;22.13;;;17.05;;
23624;SDS011;11989;47.872;12.014;2022-12-20T10:55:32;28.30;;;18.58;;
23624;SDS011;11989;47.872;12.014;2022-12-20T10:58:03;27.58;;;18.70;;
23624;SDS011;11989;47.872;12.014;2022-12-20T11:00:30;34.75;;;22.67;;
23624;SDS011;11989;47.872;12.014;2022-12-20T11:05:57;20.35;;;14.88;;
23624;SDS011;11989;47.872;12.014;2022-12-20T11:08:24;19.45;;;13.75;;
23624;SDS011;11989;47.872;12.014;2022-12-20T11:11:08;19.50;;;14.82;;
23624;SDS011;11989;47.872;12.014;2022-12-20T11:13:36;19.42;;;14.55;;
23624;SDS011;11989;47.872;12.014;2022-12-20T11:16:02;19.67;;;14.43;;
